sensor_id;sensor_type;location;lat;lon;timestamp;P1;durP1;ratioP1;P2;durP2;ratioP2
10529;SDS011;5313;48.834;9.228;2023-05-25T00:01:33;9.97;;;2.70;;
10529;SDS011;5313;48.834;9.228;2023-05-25T00:03:59;7.43;;;3.33;;
10529;SDS011;5313;48.834;9.228;2023-05-25T00:06:27;6.10;;;2.63;;
10529;SDS011;5313;48.834;9.228;2023-05-25T00:08:53;7.83;;;2.70;;
10529;SDS011;5313;48.834;9.228;2023-05-25T00:11:21;8.57;;;2.87;;
10529;SDS011;5313;48.834;9.228;2023-05-25T00:13:50;11.93;;;2.70;;
10529;SDS011;5313;48.834;9.228;2023-05-25T00:16:16;7.97;;;2.90;;
10529;SDS011;5313;48.834;9.228;2023-05-25T00:18:42;8.27;;;2.53;;
10529;SDS011;5313;48.834;9.228;2023-05-25T00:21:08;6.70;;;2.67;;
10529;SDS011;5313;48.834;9.228;2023-05-25T00:23:34;9.17;;;2.60;;
10529;SDS011;5313;48.834;9.228;2023-05-25T00:26:01;9.10;;;2.60;;
10529;SDS011;5313;48.834;9.228;2023-05-25T00:28:27;9.60;;;3.23;;
10529;SDS011;5313;48.834;9.228;2023-05-25T00:30:52;9.37;;;2.90;;
10529;SDS011;5313;48.834;9.228;2023-05-25T00:33:18;7.47;;;3.10;;
10529;SDS011;5313;48.834;9.228;2023-05-25T00:35:44;7.93;;;3.13;;
10529;SDS011;5313;48.834;9.228;2023-05-25T00:38:14;8.50;;;2.90;;
10529;SDS011;5313;48.834;9.228;2023-05-25T00:40:41;8.23;;;2.97;;
10529;SDS011;5313;48.834;9.228;2023-05-25T00:43:09;5.77;;;2.60;;
10529;SDS011;5313;48.834;9.228;2023-05-25T00:45:36;5.07;;;2.50;;
10529;SDS011;5313;48.834;9.228;2023-05-25T00:48:05;6.63;;;2.80;;
10529;SDS011;5313;48.834;9.228;2023-05-25T00:50:37;8.07;;;3.30;;
10529;SDS011;5313;48.834;9.228;2023-05-25T00:53:08;7.30;;;2.77;;
10529;SDS011;5313;48.834;9.228;2023-05-25T00:55:35;4.60;;;2.73;;
10529;SDS011;5313;48.834;9.228;2023-05-25T00:58:03;13.13;;;3.17;;
10529;SDS011;5313;48.834;9.228;2023-05-25T01:00:30;10.53;;;3.10;;
10529;SDS011;5313;48.834;9.228;2023-05-25T01:02:59;9.87;;;3.30;;
10529;SDS011;5313;48.834;9.228;2023-05-25T01:05:31;9.17;;;3.40;;
10529;SDS011;5313;48.834;9.228;2023-05-25T01:07:58;9.77;;;2.97;;
10529;SDS011;5313;48.834;9.228;2023-05-25T01:10:27;8.87;;;3.13;;
10529;SDS011;5313;48.834;9.228;2023-05-25T01:13:00;6.80;;;3.03;;
10529;SDS011;5313;48.834;9.228;2023-05-25T01:15:27;10.40;;;3.57;;
10529;SDS011;5313;48.834;9.228;2023-05-25T01:17:54;9.40;;;3.07;;
10529;SDS011;5313;48.834;9.228;2023-05-25T01:20:23;8.03;;;3.03;;
10529;SDS011;5313;48.834;9.228;2023-05-25T01:22:54;12.00;;;3.10;;
10529;SDS011;5313;48.834;9.228;2023-05-25T01:25:26;9.90;;;3.50;;
10529;SDS011;5313;48.834;9.228;2023-05-25T01:30:43;8.10;;;2.80;;
10529;SDS011;5313;48.834;9.228;2023-05-25T01:33:11;8.60;;;2.90;;
10529;SDS011;5313;48.834;9.228;2023-05-25T01:35:37;11.70;;;3.63;;
10529;SDS011;5313;48.834;9.228;2023-05-25T01:38:05;8.23;;;3.00;;
10529;SDS011;5313;48.834;9.228;2023-05-25T01:40:30;8.77;;;3.40;;
10529;SDS011;5313;48.834;9.228;2023-05-25T01:42:56;8.33;;;2.80;;
10529;SDS011;5313;48.834;9.228;2023-05-25T01:45:21;6.87;;;3.40;;
10529;SDS011;5313;48.834;9.228;2023-05-25T01:50:34;9.83;;;3.30;;
10529;SDS011;5313;48.834;9.228;2023-05-25T01:53:15;9.23;;;2.87;;
10529;SDS011;5313;48.834;9.228;2023-05-25T01:55:47;9.20;;;3.63;;
10529;SDS011;5313;48.834;9.228;2023-05-25T01:58:18;5.97;;;3.13;;
10529;SDS011;5313;48.834;9.228;2023-05-25T02:00:46;10.97;;;3.40;;
10529;SDS011;5313;48.834;9.228;2023-05-25T02:03:14;6.93;;;4.10;;
10529;SDS011;5313;48.834;9.228;2023-05-25T02:05:40;8.13;;;3.37;;
10529;SDS011;5313;48.834;9.228;2023-05-25T02:08:07;11.33;;;3.43;;
10529;SDS011;5313;48.834;9.228;2023-05-25T02:10:33;6.63;;;3.10;;
10529;SDS011;5313;48.834;9.228;2023-05-25T02:12:58;8.40;;;3.23;;
10529;SDS011;5313;48.834;9.228;2023-05-25T02:15:24;12.33;;;3.30;;
10529;SDS011;5313;48.834;9.228;2023-05-25T02:17:52;10.27;;;3.60;;
10529;SDS011;5313;48.834;9.228;2023-05-25T02:20:21;8.60;;;3.40;;
10529;SDS011;5313;48.834;9.228;2023-05-25T02:22:47;9.20;;;3.73;;
10529;SDS011;5313;48.834;9.228;2023-05-25T02:25:12;8.37;;;3.27;;
10529;SDS011;5313;48.834;9.228;2023-05-25T02:27:38;9.67;;;3.40;;
10529;SDS011;5313;48.834;9.228;2023-05-25T02:30:03;10.67;;;3.10;;
10529;SDS011;5313;48.834;9.228;2023-05-25T02:32:30;9.90;;;3.40;;
10529;SDS011;5313;48.834;9.228;2023-05-25T02:34:57;9.50;;;4.37;;
10529;SDS011;5313;48.834;9.228;2023-05-25T02:37:23;9.73;;;3.10;;
10529;SDS011;5313;48.834;9.228;2023-05-25T02:39:48;10.77;;;3.60;;
10529;SDS011;5313;48.834;9.228;2023-05-25T02:42:14;8.10;;;3.70;;
10529;SDS011;5313;48.834;9.228;2023-05-25T02:44:40;11.23;;;3.70;;
10529;SDS011;5313;48.834;9.228;2023-05-25T02:47:12;9.27;;;3.53;;
10529;SDS011;5313;48.834;9.228;2023-05-25T02:49:41;10.10;;;3.93;;
10529;SDS011;5313;48.834;9.228;2023-05-25T02:52:07;10.07;;;3.70;;
10529;SDS011;5313;48.834;9.228;2023-05-25T02:54:33;12.83;;;4.33;;
10529;SDS011;5313;48.834;9.228;2023-05-25T02:56:58;9.87;;;3.73;;
10529;SDS011;5313;48.834;9.228;2023-05-25T02:59:26;8.17;;;3.33;;
10529;SDS011;5313;48.834;9.228;2023-05-25T03:01:52;7.83;;;3.63;;
10529;SDS011;5313;48.834;9.228;2023-05-25T03:04:17;10.00;;;3.80;;
10529;SDS011;5313;48.834;9.228;2023-05-25T03:06:43;11.30;;;4.17;;
10529;SDS011;5313;48.834;9.228;2023-05-25T03:09:09;12.57;;;3.97;;
10529;SDS011;5313;48.834;9.228;2023-05-25T03:11:34;7.43;;;4.47;;
10529;SDS011;5313;48.834;9.228;2023-05-25T03:14:00;6.67;;;3.80;;
10529;SDS011;5313;48.834;9.228;2023-05-25T03:16:25;11.73;;;3.80;;
10529;SDS011;5313;48.834;9.228;2023-05-25T03:18:51;8.73;;;3.90;;
10529;SDS011;5313;48.834;9.228;2023-05-25T03:21:17;10.07;;;3.93;;
10529;SDS011;5313;48.834;9.228;2023-05-25T03:23:42;9.33;;;3.67;;
10529;SDS011;5313;48.834;9.228;2023-05-25T03:26:08;8.20;;;4.13;;
10529;SDS011;5313;48.834;9.228;2023-05-25T03:28:33;8.07;;;3.80;;
10529;SDS011;5313;48.834;9.228;2023-05-25T03:30:59;12.93;;;4.13;;
10529;SDS011;5313;48.834;9.228;2023-05-25T03:33:25;7.07;;;3.80;;
10529;SDS011;5313;48.834;9.228;2023-05-25T03:35:51;8.43;;;3.87;;
10529;SDS011;5313;48.834;9.228;2023-05-25T03:38:16;11.40;;;4.37;;
10529;SDS011;5313;48.834;9.228;2023-05-25T03:40:42;9.10;;;3.83;;
10529;SDS011;5313;48.834;9.228;2023-05-25T03:43:07;10.37;;;4.07;;
10529;SDS011;5313;48.834;9.228;2023-05-25T03:45:33;12.30;;;3.50;;
10529;SDS011;5313;48.834;9.228;2023-05-25T03:47:58;9.13;;;3.80;;
10529;SDS011;5313;48.834;9.228;2023-05-25T03:50:24;6.53;;;3.77;;
10529;SDS011;5313;48.834;9.228;2023-05-25T03:52:49;7.70;;;4.07;;
10529;SDS011;5313;48.834;9.228;2023-05-25T03:55:15;12.17;;;4.17;;
10529;SDS011;5313;48.834;9.228;2023-05-25T03:57:41;11.73;;;4.50;;
10529;SDS011;5313;48.834;9.228;2023-05-25T04:00:07;9.17;;;3.90;;
10529;SDS011;5313;48.834;9.228;2023-05-25T04:02:33;8.60;;;4.27;;
10529;SDS011;5313;48.834;9.228;2023-05-25T04:04:59;9.83;;;4.10;;
10529;SDS011;5313;48.834;9.228;2023-05-25T04:07:24;11.03;;;3.97;;
10529;SDS011;5313;48.834;9.228;2023-05-25T04:09:51;11.53;;;4.40;;
10529;SDS011;5313;48.834;9.228;2023-05-25T04:12:17;9.13;;;4.20;;
10529;SDS011;5313;48.834;9.228;2023-05-25T04:14:42;9.40;;;4.47;;
10529;SDS011;5313;48.834;9.228;2023-05-25T04:17:08;12.20;;;4.47;;
10529;SDS011;5313;48.834;9.228;2023-05-25T04:19:34;9.93;;;4.60;;
10529;SDS011;5313;48.834;9.228;2023-05-25T04:21:59;9.87;;;4.37;;
10529;SDS011;5313;48.834;9.228;2023-05-25T04:24:25;10.37;;;4.53;;
10529;SDS011;5313;48.834;9.228;2023-05-25T04:26:51;10.57;;;4.67;;
10529;SDS011;5313;48.834;9.228;2023-05-25T04:29:17;10.00;;;4.33;;
10529;SDS011;5313;48.834;9.228;2023-05-25T04:31:42;8.13;;;4.10;;
10529;SDS011;5313;48.834;9.228;2023-05-25T04:34:09;12.20;;;4.40;;
10529;SDS011;5313;48.834;9.228;2023-05-25T04:36:35;5.90;;;3.47;;
10529;SDS011;5313;48.834;9.228;2023-05-25T04:39:03;11.03;;;4.27;;
10529;SDS011;5313;48.834;9.228;2023-05-25T04:41:29;16.07;;;3.90;;
10529;SDS011;5313;48.834;9.228;2023-05-25T04:43:55;11.77;;;4.80;;
10529;SDS011;5313;48.834;9.228;2023-05-25T04:46:21;10.80;;;4.50;;
10529;SDS011;5313;48.834;9.228;2023-05-25T04:48:47;9.10;;;4.43;;
10529;SDS011;5313;48.834;9.228;2023-05-25T04:51:12;7.63;;;4.30;;
10529;SDS011;5313;48.834;9.228;2023-05-25T04:53:38;7.63;;;4.20;;
10529;SDS011;5313;48.834;9.228;2023-05-25T04:56:03;11.67;;;4.50;;
10529;SDS011;5313;48.834;9.228;2023-05-25T04:58:29;11.20;;;4.20;;
10529;SDS011;5313;48.834;9.228;2023-05-25T05:00:57;14.87;;;4.13;;
10529;SDS011;5313;48.834;9.228;2023-05-25T05:03:23;9.40;;;4.17;;
10529;SDS011;5313;48.834;9.228;2023-05-25T05:05:48;12.00;;;4.23;;
10529;SDS011;5313;48.834;9.228;2023-05-25T05:08:17;14.93;;;4.63;;
10529;SDS011;5313;48.834;9.228;2023-05-25T05:10:43;10.43;;;4.33;;
10529;SDS011;5313;48.834;9.228;2023-05-25T05:13:11;12.50;;;4.67;;
10529;SDS011;5313;48.834;9.228;2023-05-25T05:15:42;8.47;;;4.20;;
10529;SDS011;5313;48.834;9.228;2023-05-25T05:18:08;9.87;;;4.10;;
10529;SDS011;5313;48.834;9.228;2023-05-25T05:20:34;14.23;;;4.40;;
10529;SDS011;5313;48.834;9.228;2023-05-25T05:23:02;10.87;;;4.70;;
10529;SDS011;5313;48.834;9.228;2023-05-25T05:25:28;11.63;;;4.77;;
10529;SDS011;5313;48.834;9.228;2023-05-25T05:27:56;8.73;;;4.30;;
10529;SDS011;5313;48.834;9.228;2023-05-25T05:30:26;10.83;;;4.60;;
10529;SDS011;5313;48.834;9.228;2023-05-25T05:32:57;12.40;;;4.47;;
10529;SDS011;5313;48.834;9.228;2023-05-25T05:35:30;12.03;;;4.43;;
10529;SDS011;5313;48.834;9.228;2023-05-25T05:37:56;9.77;;;4.20;;
10529;SDS011;5313;48.834;9.228;2023-05-25T05:40:21;9.17;;;4.13;;
10529;SDS011;5313;48.834;9.228;2023-05-25T05:42:54;9.00;;;4.63;;
10529;SDS011;5313;48.834;9.228;2023-05-25T05:45:20;10.10;;;4.03;;
10529;SDS011;5313;48.834;9.228;2023-05-25T05:47:48;10.10;;;4.33;;
10529;SDS011;5313;48.834;9.228;2023-05-25T05:50:16;12.10;;;4.57;;
10529;SDS011;5313;48.834;9.228;2023-05-25T05:52:42;7.77;;;4.43;;
10529;SDS011;5313;48.834;9.228;2023-05-25T05:55:08;14.33;;;4.63;;
10529;SDS011;5313;48.834;9.228;2023-05-25T05:57:37;10.03;;;4.30;;
10529;SDS011;5313;48.834;9.228;2023-05-25T06:00:06;16.67;;;5.00;;
10529;SDS011;5313;48.834;9.228;2023-05-25T06:02:59;13.43;;;4.67;;
10529;SDS011;5313;48.834;9.228;2023-05-25T06:05:25;9.90;;;4.60;;
10529;SDS011;5313;48.834;9.228;2023-05-25T06:07:52;11.40;;;4.07;;
10529;SDS011;5313;48.834;9.228;2023-05-25T06:10:18;16.87;;;5.20;;
10529;SDS011;5313;48.834;9.228;2023-05-25T06:12:47;12.33;;;4.77;;
10529;SDS011;5313;48.834;9.228;2023-05-25T06:15:13;14.60;;;5.10;;
10529;SDS011;5313;48.834;9.228;2023-05-25T06:17:42;10.60;;;4.50;;
10529;SDS011;5313;48.834;9.228;2023-05-25T06:20:11;13.83;;;4.80;;
10529;SDS011;5313;48.834;9.228;2023-05-25T06:22:38;11.50;;;4.77;;
10529;SDS011;5313;48.834;9.228;2023-05-25T06:25:04;10.53;;;4.87;;
10529;SDS011;5313;48.834;9.228;2023-05-25T06:27:30;12.17;;;4.97;;
10529;SDS011;5313;48.834;9.228;2023-05-25T06:30:04;8.50;;;4.37;;
10529;SDS011;5313;48.834;9.228;2023-05-25T06:32:33;10.90;;;4.63;;
10529;SDS011;5313;48.834;9.228;2023-05-25T06:34:59;10.40;;;4.63;;
10529;SDS011;5313;48.834;9.228;2023-05-25T06:37:25;11.97;;;4.83;;
10529;SDS011;5313;48.834;9.228;2023-05-25T06:39:52;13.20;;;5.40;;
10529;SDS011;5313;48.834;9.228;2023-05-25T06:42:17;13.40;;;5.33;;
10529;SDS011;5313;48.834;9.228;2023-05-25T06:44:43;13.70;;;5.37;;
10529;SDS011;5313;48.834;9.228;2023-05-25T06:47:08;10.70;;;5.07;;
10529;SDS011;5313;48.834;9.228;2023-05-25T06:49:34;10.30;;;4.67;;
10529;SDS011;5313;48.834;9.228;2023-05-25T06:51:59;12.27;;;4.80;;
10529;SDS011;5313;48.834;9.228;2023-05-25T06:54:25;10.57;;;4.77;;
10529;SDS011;5313;48.834;9.228;2023-05-25T06:56:51;9.90;;;4.90;;
10529;SDS011;5313;48.834;9.228;2023-05-25T06:59:16;14.47;;;5.30;;
10529;SDS011;5313;48.834;9.228;2023-05-25T07:01:44;12.57;;;4.77;;
10529;SDS011;5313;48.834;9.228;2023-05-25T07:04:10;12.50;;;4.70;;
10529;SDS011;5313;48.834;9.228;2023-05-25T07:06:35;8.60;;;5.00;;
10529;SDS011;5313;48.834;9.228;2023-05-25T07:09:01;11.07;;;4.93;;
10529;SDS011;5313;48.834;9.228;2023-05-25T07:11:26;12.40;;;5.23;;
10529;SDS011;5313;48.834;9.228;2023-05-25T07:13:52;14.63;;;5.40;;
10529;SDS011;5313;48.834;9.228;2023-05-25T07:16:17;11.73;;;5.17;;
10529;SDS011;5313;48.834;9.228;2023-05-25T07:18:43;13.07;;;5.53;;
10529;SDS011;5313;48.834;9.228;2023-05-25T07:21:09;15.53;;;4.93;;
10529;SDS011;5313;48.834;9.228;2023-05-25T07:23:35;14.40;;;5.30;;
10529;SDS011;5313;48.834;9.228;2023-05-25T07:26:01;11.93;;;5.77;;
10529;SDS011;5313;48.834;9.228;2023-05-25T07:28:27;13.17;;;4.77;;
10529;SDS011;5313;48.834;9.228;2023-05-25T07:30:53;16.77;;;5.87;;
10529;SDS011;5313;48.834;9.228;2023-05-25T07:33:18;9.43;;;5.30;;
10529;SDS011;5313;48.834;9.228;2023-05-25T07:35:44;10.03;;;4.90;;
10529;SDS011;5313;48.834;9.228;2023-05-25T07:38:09;11.40;;;4.87;;
10529;SDS011;5313;48.834;9.228;2023-05-25T07:40:35;11.07;;;5.43;;
10529;SDS011;5313;48.834;9.228;2023-05-25T07:43:01;12.20;;;4.97;;
10529;SDS011;5313;48.834;9.228;2023-05-25T07:45:26;12.67;;;5.33;;
10529;SDS011;5313;48.834;9.228;2023-05-25T07:47:52;8.67;;;5.00;;
10529;SDS011;5313;48.834;9.228;2023-05-25T07:50:17;12.57;;;5.30;;
10529;SDS011;5313;48.834;9.228;2023-05-25T07:52:43;12.60;;;4.80;;
10529;SDS011;5313;48.834;9.228;2023-05-25T07:55:09;12.33;;;5.47;;
10529;SDS011;5313;48.834;9.228;2023-05-25T07:57:35;13.43;;;5.50;;
10529;SDS011;5313;48.834;9.228;2023-05-25T08:00:00;12.70;;;5.47;;
10529;SDS011;5313;48.834;9.228;2023-05-25T08:02:26;9.87;;;5.03;;
10529;SDS011;5313;48.834;9.228;2023-05-25T08:04:52;11.10;;;5.33;;
10529;SDS011;5313;48.834;9.228;2023-05-25T08:07:18;11.47;;;5.23;;
10529;SDS011;5313;48.834;9.228;2023-05-25T08:09:44;15.60;;;5.73;;
10529;SDS011;5313;48.834;9.228;2023-05-25T08:12:09;12.17;;;5.40;;
10529;SDS011;5313;48.834;9.228;2023-05-25T08:14:35;11.40;;;4.90;;
10529;SDS011;5313;48.834;9.228;2023-05-25T08:17:00;14.33;;;5.43;;
10529;SDS011;5313;48.834;9.228;2023-05-25T08:19:26;13.50;;;5.87;;
10529;SDS011;5313;48.834;9.228;2023-05-25T08:21:55;12.13;;;5.50;;
10529;SDS011;5313;48.834;9.228;2023-05-25T08:24:20;15.03;;;5.40;;
10529;SDS011;5313;48.834;9.228;2023-05-25T08:26:46;10.83;;;5.30;;
10529;SDS011;5313;48.834;9.228;2023-05-25T08:29:12;11.40;;;5.47;;
10529;SDS011;5313;48.834;9.228;2023-05-25T08:31:38;12.43;;;5.63;;
10529;SDS011;5313;48.834;9.228;2023-05-25T08:34:05;11.10;;;5.90;;
10529;SDS011;5313;48.834;9.228;2023-05-25T08:36:31;13.87;;;6.10;;
10529;SDS011;5313;48.834;9.228;2023-05-25T08:38:58;12.03;;;5.30;;
10529;SDS011;5313;48.834;9.228;2023-05-25T08:41:23;11.33;;;5.97;;
10529;SDS011;5313;48.834;9.228;2023-05-25T08:43:49;11.93;;;6.13;;
10529;SDS011;5313;48.834;9.228;2023-05-25T08:48:46;12.93;;;5.40;;
10529;SDS011;5313;48.834;9.228;2023-05-25T08:51:15;12.30;;;6.23;;
10529;SDS011;5313;48.834;9.228;2023-05-25T08:53:42;12.27;;;5.43;;
10529;SDS011;5313;48.834;9.228;2023-05-25T08:56:18;11.07;;;5.53;;
10529;SDS011;5313;48.834;9.228;2023-05-25T08:58:45;12.03;;;5.93;;
10529;SDS011;5313;48.834;9.228;2023-05-25T09:01:25;12.87;;;5.80;;
10529;SDS011;5313;48.834;9.228;2023-05-25T09:03:56;11.67;;;5.77;;
10529;SDS011;5313;48.834;9.228;2023-05-25T09:06:23;9.83;;;5.20;;
10529;SDS011;5313;48.834;9.228;2023-05-25T09:08:50;13.53;;;5.70;;
10529;SDS011;5313;48.834;9.228;2023-05-25T09:11:17;12.20;;;5.60;;
10529;SDS011;5313;48.834;9.228;2023-05-25T09:13:44;12.20;;;5.77;;
10529;SDS011;5313;48.834;9.228;2023-05-25T09:16:10;10.03;;;5.43;;
10529;SDS011;5313;48.834;9.228;2023-05-25T09:18:36;10.07;;;5.37;;
10529;SDS011;5313;48.834;9.228;2023-05-25T09:21:02;10.97;;;4.90;;
10529;SDS011;5313;48.834;9.228;2023-05-25T09:23:28;10.53;;;5.27;;
10529;SDS011;5313;48.834;9.228;2023-05-25T09:25:54;12.10;;;5.73;;
10529;SDS011;5313;48.834;9.228;2023-05-25T09:28:21;12.07;;;5.47;;
10529;SDS011;5313;48.834;9.228;2023-05-25T09:30:47;12.67;;;5.13;;
10529;SDS011;5313;48.834;9.228;2023-05-25T09:33:12;11.37;;;5.13;;
10529;SDS011;5313;48.834;9.228;2023-05-25T09:35:42;9.50;;;5.17;;
10529;SDS011;5313;48.834;9.228;2023-05-25T09:38:08;11.57;;;5.40;;
10529;SDS011;5313;48.834;9.228;2023-05-25T09:40:36;9.90;;;5.40;;
10529;SDS011;5313;48.834;9.228;2023-05-25T09:43:02;11.77;;;5.17;;
10529;SDS011;5313;48.834;9.228;2023-05-25T09:45:28;10.33;;;5.30;;
10529;SDS011;5313;48.834;9.228;2023-05-25T09:47:54;13.60;;;5.27;;
10529;SDS011;5313;48.834;9.228;2023-05-25T09:50:21;9.40;;;4.63;;
10529;SDS011;5313;48.834;9.228;2023-05-25T09:52:47;12.50;;;4.87;;
10529;SDS011;5313;48.834;9.228;2023-05-25T09:55:12;14.43;;;5.27;;
10529;SDS011;5313;48.834;9.228;2023-05-25T09:57:39;9.40;;;5.07;;
10529;SDS011;5313;48.834;9.228;2023-05-25T10:00:06;8.57;;;5.10;;
10529;SDS011;5313;48.834;9.228;2023-05-25T10:02:34;9.07;;;4.77;;
10529;SDS011;5313;48.834;9.228;2023-05-25T10:05:00;9.53;;;5.50;;
10529;SDS011;5313;48.834;9.228;2023-05-25T10:07:25;9.27;;;5.37;;
10529;SDS011;5313;48.834;9.228;2023-05-25T10:09:51;8.70;;;4.77;;
10529;SDS011;5313;48.834;9.228;2023-05-25T10:12:19;8.07;;;4.53;;
10529;SDS011;5313;48.834;9.228;2023-05-25T10:14:49;7.70;;;4.80;;
10529;SDS011;5313;48.834;9.228;2023-05-25T10:17:16;7.93;;;4.47;;
10529;SDS011;5313;48.834;9.228;2023-05-25T10:20:07;9.70;;;5.10;;
10529;SDS011;5313;48.834;9.228;2023-05-25T10:25:15;11.23;;;5.00;;
10529;SDS011;5313;48.834;9.228;2023-05-25T10:28:06;8.40;;;5.20;;
10529;SDS011;5313;48.834;9.228;2023-05-25T10:30:38;9.80;;;4.90;;
10529;SDS011;5313;48.834;9.228;2023-05-25T10:33:05;6.27;;;4.17;;
10529;SDS011;5313;48.834;9.228;2023-05-25T10:35:32;8.97;;;4.23;;
10529;SDS011;5313;48.834;9.228;2023-05-25T10:37:58;11.77;;;4.43;;
10529;SDS011;5313;48.834;9.228;2023-05-25T10:40:25;10.93;;;4.57;;
10529;SDS011;5313;48.834;9.228;2023-05-25T10:42:51;8.07;;;4.53;;
10529;SDS011;5313;48.834;9.228;2023-05-25T10:45:17;9.30;;;4.70;;
10529;SDS011;5313;48.834;9.228;2023-05-25T10:47:43;10.50;;;5.00;;
10529;SDS011;5313;48.834;9.228;2023-05-25T10:50:23;9.27;;;4.43;;
10529;SDS011;5313;48.834;9.228;2023-05-25T10:52:59;7.93;;;4.53;;
10529;SDS011;5313;48.834;9.228;2023-05-25T10:55:40;8.00;;;4.60;;
10529;SDS011;5313;48.834;9.228;2023-05-25T10:58:18;5.77;;;4.10;;
10529;SDS011;5313;48.834;9.228;2023-05-25T11:06:11;7.30;;;4.80;;
10529;SDS011;5313;48.834;9.228;2023-05-25T11:08:53;9.47;;;4.83;;
10529;SDS011;5313;48.834;9.228;2023-05-25T11:11:59;7.60;;;4.10;;
10529;SDS011;5313;48.834;9.228;2023-05-25T11:14:05;7.30;;;4.10;;
10529;SDS011;5313;48.834;9.228;2023-05-25T11:17:02;7.33;;;4.30;;
10529;SDS011;5313;48.834;9.228;2023-05-25T11:19:41;9.17;;;4.57;;
10529;SDS011;5313;48.834;9.228;2023-05-25T11:22:19;7.37;;;4.90;;
10529;SDS011;5313;48.834;9.228;2023-05-25T11:24:46;9.07;;;4.80;;
10529;SDS011;5313;48.834;9.228;2023-05-25T11:27:13;7.77;;;4.53;;
10529;SDS011;5313;48.834;9.228;2023-05-25T11:29:38;8.87;;;4.30;;
10529;SDS011;5313;48.834;9.228;2023-05-25T11:32:12;8.60;;;4.50;;
10529;SDS011;5313;48.834;9.228;2023-05-25T11:34:38;11.97;;;4.90;;
10529;SDS011;5313;48.834;9.228;2023-05-25T11:37:05;9.70;;;4.57;;
10529;SDS011;5313;48.834;9.228;2023-05-25T11:39:33;9.10;;;4.37;;
10529;SDS011;5313;48.834;9.228;2023-05-25T11:42:03;7.77;;;4.90;;
10529;SDS011;5313;48.834;9.228;2023-05-25T11:44:31;9.00;;;4.50;;
10529;SDS011;5313;48.834;9.228;2023-05-25T11:47:15;9.43;;;4.30;;
10529;SDS011;5313;48.834;9.228;2023-05-25T11:49:46;8.37;;;4.33;;
10529;SDS011;5313;48.834;9.228;2023-05-25T11:52:14;8.67;;;4.63;;
10529;SDS011;5313;48.834;9.228;2023-05-25T11:54:41;9.93;;;4.60;;
10529;SDS011;5313;48.834;9.228;2023-05-25T11:57:40;7.87;;;4.50;;
10529;SDS011;5313;48.834;9.228;2023-05-25T11:59:59;10.77;;;4.30;;
10529;SDS011;5313;48.834;9.228;2023-05-25T12:02:35;9.00;;;5.00;;
10529;SDS011;5313;48.834;9.228;2023-05-25T12:05:01;10.87;;;4.50;;
10529;SDS011;5313;48.834;9.228;2023-05-25T12:07:28;8.67;;;4.33;;
10529;SDS011;5313;48.834;9.228;2023-05-25T12:10:04;11.33;;;4.60;;
10529;SDS011;5313;48.834;9.228;2023-05-25T12:12:38;9.30;;;4.77;;
10529;SDS011;5313;48.834;9.228;2023-05-25T12:15:31;9.60;;;4.67;;
10529;SDS011;5313;48.834;9.228;2023-05-25T12:17:56;10.03;;;4.80;;
10529;SDS011;5313;48.834;9.228;2023-05-25T12:20:21;11.50;;;4.53;;
10529;SDS011;5313;48.834;9.228;2023-05-25T12:22:47;10.00;;;4.03;;
10529;SDS011;5313;48.834;9.228;2023-05-25T12:25:13;11.60;;;4.30;;
10529;SDS011;5313;48.834;9.228;2023-05-25T12:27:43;9.30;;;4.50;;
10529;SDS011;5313;48.834;9.228;2023-05-25T12:30:09;10.63;;;4.63;;
10529;SDS011;5313;48.834;9.228;2023-05-25T12:33:20;12.90;;;5.53;;
10529;SDS011;5313;48.834;9.228;2023-05-25T12:35:25;9.03;;;4.80;;
10529;SDS011;5313;48.834;9.228;2023-05-25T12:38:08;9.20;;;4.70;;
10529;SDS011;5313;48.834;9.228;2023-05-25T12:40:35;9.20;;;4.43;;
10529;SDS011;5313;48.834;9.228;2023-05-25T12:43:00;13.23;;;4.47;;
10529;SDS011;5313;48.834;9.228;2023-05-25T12:45:26;10.53;;;5.27;;
10529;SDS011;5313;48.834;9.228;2023-05-25T12:47:51;8.57;;;4.50;;
10529;SDS011;5313;48.834;9.228;2023-05-25T12:50:17;9.10;;;4.40;;
10529;SDS011;5313;48.834;9.228;2023-05-25T12:52:43;10.57;;;4.93;;
10529;SDS011;5313;48.834;9.228;2023-05-25T12:55:26;8.97;;;4.60;;
10529;SDS011;5313;48.834;9.228;2023-05-25T12:57:54;8.20;;;4.70;;
10529;SDS011;5313;48.834;9.228;2023-05-25T13:00:26;7.47;;;4.63;;
10529;SDS011;5313;48.834;9.228;2023-05-25T13:02:54;10.90;;;4.80;;
10529;SDS011;5313;48.834;9.228;2023-05-25T13:05:23;11.37;;;4.53;;
10529;SDS011;5313;48.834;9.228;2023-05-25T13:07:53;7.93;;;4.30;;
10529;SDS011;5313;48.834;9.228;2023-05-25T13:10:19;9.50;;;4.47;;
10529;SDS011;5313;48.834;9.228;2023-05-25T13:12:46;9.87;;;4.60;;
10529;SDS011;5313;48.834;9.228;2023-05-25T13:15:13;7.03;;;4.43;;
10529;SDS011;5313;48.834;9.228;2023-05-25T13:17:41;7.40;;;4.50;;
10529;SDS011;5313;48.834;9.228;2023-05-25T13:20:07;10.33;;;4.53;;
10529;SDS011;5313;48.834;9.228;2023-05-25T13:22:36;7.60;;;4.70;;
10529;SDS011;5313;48.834;9.228;2023-05-25T13:25:01;9.67;;;4.03;;
10529;SDS011;5313;48.834;9.228;2023-05-25T13:27:27;8.20;;;4.17;;
10529;SDS011;5313;48.834;9.228;2023-05-25T13:29:54;6.20;;;4.13;;
10529;SDS011;5313;48.834;9.228;2023-05-25T13:32:21;8.47;;;4.40;;
10529;SDS011;5313;48.834;9.228;2023-05-25T13:34:46;8.70;;;4.57;;
10529;SDS011;5313;48.834;9.228;2023-05-25T13:37:12;7.83;;;4.70;;
10529;SDS011;5313;48.834;9.228;2023-05-25T13:39:37;9.20;;;4.90;;
10529;SDS011;5313;48.834;9.228;2023-05-25T13:42:03;9.50;;;4.20;;
10529;SDS011;5313;48.834;9.228;2023-05-25T13:44:28;12.27;;;4.67;;
10529;SDS011;5313;48.834;9.228;2023-05-25T13:46:54;7.10;;;4.10;;
10529;SDS011;5313;48.834;9.228;2023-05-25T13:49:19;8.93;;;4.70;;
10529;SDS011;5313;48.834;9.228;2023-05-25T13:51:45;7.83;;;4.30;;
10529;SDS011;5313;48.834;9.228;2023-05-25T13:54:11;12.30;;;4.30;;
10529;SDS011;5313;48.834;9.228;2023-05-25T13:56:39;8.10;;;4.10;;
10529;SDS011;5313;48.834;9.228;2023-05-25T13:59:06;8.33;;;4.40;;
10529;SDS011;5313;48.834;9.228;2023-05-25T14:01:31;7.00;;;4.40;;
10529;SDS011;5313;48.834;9.228;2023-05-25T14:03:58;6.27;;;4.07;;
10529;SDS011;5313;48.834;9.228;2023-05-25T14:06:24;14.40;;;4.60;;
10529;SDS011;5313;48.834;9.228;2023-05-25T14:08:50;9.63;;;4.80;;
10529;SDS011;5313;48.834;9.228;2023-05-25T14:11:15;9.83;;;4.83;;
10529;SDS011;5313;48.834;9.228;2023-05-25T14:13:41;8.53;;;5.00;;
10529;SDS011;5313;48.834;9.228;2023-05-25T14:16:06;12.47;;;4.37;;
10529;SDS011;5313;48.834;9.228;2023-05-25T14:18:32;12.40;;;4.83;;
10529;SDS011;5313;48.834;9.228;2023-05-25T14:20:58;8.23;;;4.13;;
10529;SDS011;5313;48.834;9.228;2023-05-25T14:23:23;7.57;;;4.23;;
10529;SDS011;5313;48.834;9.228;2023-05-25T14:25:49;8.20;;;4.20;;
10529;SDS011;5313;48.834;9.228;2023-05-25T14:28:14;7.33;;;4.10;;
10529;SDS011;5313;48.834;9.228;2023-05-25T14:30:40;9.40;;;4.27;;
10529;SDS011;5313;48.834;9.228;2023-05-25T14:33:06;6.77;;;3.97;;
10529;SDS011;5313;48.834;9.228;2023-05-25T14:35:31;8.10;;;4.40;;
10529;SDS011;5313;48.834;9.228;2023-05-25T14:37:57;6.77;;;4.07;;
10529;SDS011;5313;48.834;9.228;2023-05-25T14:40:22;9.57;;;4.77;;
10529;SDS011;5313;48.834;9.228;2023-05-25T14:42:48;7.23;;;4.17;;
10529;SDS011;5313;48.834;9.228;2023-05-25T14:45:13;6.37;;;3.93;;
10529;SDS011;5313;48.834;9.228;2023-05-25T14:47:39;5.97;;;3.60;;
10529;SDS011;5313;48.834;9.228;2023-05-25T14:50:05;6.37;;;3.77;;
10529;SDS011;5313;48.834;9.228;2023-05-25T14:52:31;10.63;;;4.10;;
10529;SDS011;5313;48.834;9.228;2023-05-25T14:54:56;9.00;;;4.20;;
10529;SDS011;5313;48.834;9.228;2023-05-25T14:57:22;7.20;;;4.67;;
10529;SDS011;5313;48.834;9.228;2023-05-25T14:59:47;9.53;;;4.20;;
10529;SDS011;5313;48.834;9.228;2023-05-25T15:02:13;7.05;;;4.20;;
10529;SDS011;5313;48.834;9.228;2023-05-25T15:04:38;10.48;;;4.22;;
10529;SDS011;5313;48.834;9.228;2023-05-25T15:07:04;5.65;;;3.90;;
10529;SDS011;5313;48.834;9.228;2023-05-25T15:09:30;8.47;;;4.47;;
10529;SDS011;5313;48.834;9.228;2023-05-25T15:11:57;9.70;;;4.43;;
10529;SDS011;5313;48.834;9.228;2023-05-25T15:14:23;5.40;;;3.77;;